createdAt,value
2019-04-07T00:03:26.590Z,67.70
2019-04-07T00:13:28.618Z,67.70
2019-04-07T00:23:31.110Z,67.90
2019-04-07T00:33:33.436Z,68.20
2019-04-07T00:43:35.451Z,68.20
2019-04-07T00:53:37.524Z,68.60
2019-04-07T01:03:40.266Z,68.80
2019-04-07T01:13:42.773Z,69.20
2019-04-07T01:23:44.787Z,69.70
2019-04-07T01:33:46.918Z,70.00
2019-04-07T01:43:49.396Z,69.90
2019-04-07T01:53:51.964Z,70.10
2019-04-07T02:03:54.105Z,70.30
2019-04-07T02:13:56.105Z,70.10
2019-04-07T02:23:58.155Z,70.20
2019-04-07T02:34:00.247Z,70.60
2019-04-07T02:44:02.857Z,70.00
2019-04-07T02:54:05.902Z,71.00
2019-04-07T03:04:08.099Z,71.30
2019-04-07T03:14:10.742Z,71.50
2019-04-07T03:24:12.474Z,71.80
2019-04-07T03:34:15.148Z,73.90
2019-04-07T03:44:17.159Z,73.00
2019-04-07T03:54:19.123Z,72.80
2019-04-07T04:04:21.340Z,72.80
2019-04-07T04:14:25.223Z,72.90
2019-04-07T04:24:40.193Z,72.90
2019-04-07T04:34:43.151Z,73.10
2019-04-07T04:44:45.630Z,73.40
2019-04-07T04:54:47.650Z,73.50
2019-04-07T05:04:49.779Z,73.80
2019-04-07T05:14:51.912Z,74.00
2019-04-07T05:24:54.046Z,74.40
2019-04-07T05:34:56.681Z,74.80
2019-04-07T05:44:58.746Z,74.80
2019-04-07T05:55:01.286Z,74.80
2019-04-07T06:05:04.157Z,74.80
2019-04-07T06:15:06.274Z,74.60
2019-04-07T06:25:09.610Z,76.40
2019-04-07T06:35:13.894Z,74.00
2019-04-07T06:45:16.240Z,73.80
2019-04-07T06:55:24.631Z,73.70
2019-04-07T07:05:25.138Z,73.50
2019-04-07T07:15:28.245Z,73.60
2019-04-07T07:25:32.102Z,72.80
2019-04-07T07:35:34.328Z,72.70
2019-04-07T07:45:37.184Z,71.60
2019-04-07T07:55:39.318Z,70.70
2019-04-07T08:05:41.281Z,70.50
2019-04-07T08:15:43.745Z,70.00
2019-04-07T08:25:46.458Z,69.40
2019-04-07T08:36:11.182Z,68.70
2019-04-07T08:46:11.090Z,67.70
2019-04-07T08:56:13.075Z,65.80
2019-04-07T09:06:15.023Z,65.40
2019-04-07T09:16:17.751Z,64.60
2019-04-07T09:26:21.871Z,63.70
2019-04-07T09:36:24.637Z,62.20
2019-04-07T09:46:27.541Z,61.00
2019-04-07T09:56:31.764Z,59.90
2019-04-07T10:06:33.481Z,59.40
2019-04-07T10:16:36.140Z,58.10
2019-04-07T10:26:39.092Z,56.40
2019-04-07T10:36:42.390Z,54.80
2019-04-07T10:46:44.960Z,52.70
2019-04-07T10:56:48.070Z,50.80
2019-04-07T11:06:50.186Z,47.60
2019-04-07T11:16:52.507Z,44.80
2019-04-07T11:26:56.803Z,42.40
2019-04-07T11:36:59.497Z,40.70
2019-04-07T11:47:02.239Z,39.00
2019-04-07T11:57:04.429Z,36.70
2019-04-07T12:07:06.592Z,24.90
2019-04-07T12:17:09.406Z,17.90
2019-04-07T12:27:12.653Z,14.50
2019-04-07T12:37:15.673Z,21.80
2019-04-07T12:47:18.189Z,25.00
2019-04-07T12:57:20.276Z,25.60
2019-04-07T13:07:22.981Z,21.60
2019-04-07T13:17:25.969Z,25.40
2019-04-07T13:27:29.657Z,19.00
2019-04-07T13:37:31.771Z,9.70
2019-04-07T13:47:34.077Z,6.80
2019-04-07T13:57:37.081Z,6.50
2019-04-07T14:07:39.493Z,10.70
2019-04-07T14:17:42.999Z,13.10
2019-04-07T14:27:46.195Z,7.50
2019-04-07T14:37:48.461Z,10.90
2019-04-07T14:47:50.430Z,15.00
2019-04-07T14:57:53.458Z,15.10
2019-04-07T15:07:57.938Z,11.60
2019-04-07T15:17:59.850Z,14.40
2019-04-07T15:28:02.549Z,18.20
2019-04-07T15:38:05.314Z,21.10
2019-04-07T15:48:08.183Z,22.30
2019-04-07T15:58:10.735Z,23.00
2019-04-07T16:08:14.577Z,23.30
2019-04-07T16:18:16.536Z,23.90
2019-04-07T16:28:18.671Z,24.40
2019-04-07T16:38:20.708Z,25.20
2019-04-07T16:48:22.909Z,26.60
2019-04-07T16:58:24.836Z,27.40
2019-04-07T17:08:28.627Z,27.70
2019-04-07T17:18:38.937Z,29.60
2019-04-07T17:28:44.513Z,28.60
2019-04-07T17:38:45.345Z,29.30
2019-04-07T17:48:52.072Z,29.90
2019-04-07T17:58:51.324Z,30.40
2019-04-07T18:09:04.606Z,30.90
2019-04-07T18:18:59.441Z,31.80
2019-04-07T18:29:02.342Z,32.30
2019-04-07T18:39:06.636Z,32.90
2019-04-07T18:49:11.400Z,33.90
2019-04-07T18:59:17.118Z,34.60
2019-04-07T19:09:17.796Z,35.30
2019-04-07T19:19:19.352Z,36.00
2019-04-07T19:29:21.700Z,38.50
2019-04-07T19:39:24.679Z,36.40
2019-04-07T19:49:27.252Z,38.90
2019-04-07T19:59:28.862Z,36.90
2019-04-07T20:09:32.072Z,38.50
2019-04-07T20:19:39.475Z,37.50
2019-04-07T20:29:41.478Z,38.20
2019-04-07T20:39:41.618Z,38.60
2019-04-07T20:49:43.646Z,38.80
2019-04-07T20:59:51.341Z,39.00
2019-04-07T21:09:50.034Z,39.10
2019-04-07T21:19:51.958Z,39.40
2019-04-07T21:29:54.043Z,40.00
2019-04-07T21:39:56.809Z,40.30
2019-04-07T21:49:58.802Z,40.60
2019-04-07T22:00:00.810Z,41.20
2019-04-07T22:10:03.915Z,41.60
2019-04-07T22:20:06.550Z,42.10
2019-04-07T22:30:09.132Z,43.40
2019-04-07T22:40:17.148Z,44.50
2019-04-07T22:50:19.099Z,43.10
2019-04-07T23:00:21.379Z,43.50
2019-04-07T23:10:23.406Z,43.80
2019-04-07T23:20:25.469Z,44.00
2019-04-07T23:30:27.811Z,44.30
2019-04-07T23:40:30.121Z,44.40
2019-04-07T23:50:32.239Z,44.40
